logo
Search for airport 
image banner adimage banner adimage banner ad
image banner ad

VT34 - Major W Guth

Located in Westminster, United States

ICAO - VT34, IATA -

Data provided by Airmate  

General information

Coordinates: N43°3'36" W72°29'31"
Elevation is 819 feet MSL.
Magnetic variation is -15° East
View others Airports in Vermont

Operational data

Special qualification required
Current time UTC:
Current local time:
Weather at : KEEN - Dillant/Hopkins ( 25 km )
METAR: KEEN 131456Z AUTO 21007KT 10SM SCT036 SCT050 OVC060 08/02 A2947 RMK AO2 PK WND 30028/1429 RAB31E51 SLP983 P0000 60000 T00780022 53011 $
View NOTAMs / SUP AIP / TFR affecting this airport [VIEW]
Communications frequencies: [VIEW]

Runways:

RWY identifierQFULength (ft)Width (ft)SurfaceLDA (ft)
01120090GRAVEL
19120090GRAVEL

Airport contact information

Address: Westminster United States

Satellite view of VT34